Lemon Grove, CA (91945)

3:29 PM PST on February 09, 2016 (GMT -0800)
Serramar | | Change Station
CLOSE
Current Station
Personal Weather Station
Location: La Mesa, CA
Elevation: 584 ft
Nearby Weather Stations

Elev 584 ft 32.75 °N, 117.04 °W | Updated 7 seconds ago

Clear
Clear
89.8 °F
Feels Like 86 °F
N
2.7
Wind Variable Wind from WSW
Gusts 4.9 mph

Today
High -- | Low -- °F
--% Chance of Precip.
Yesterday
High -- | Low -- °F
Precip. -- in
Pressure 30.06 in
Visibility 9.0 miles
Clouds Clear
Heat Index 86 °F
Dew Point 26 °F
Humidity 10%
Rainfall 0.00 in
Snow Depth Not available.
6:37 AM 5:27 PM
New Moon, 3% visible
METAR KSEE 092315Z AUTO 00000KT 9SM CLR 32/M03 A3006 RMK AO2
Pressure 30.06 in
Visibility 9.0 miles
Clouds Clear
Heat Index 86 °F
Dew Point 26 °F
Humidity 10%
Rainfall 0.00 in
Snow Depth Not available.
6:37 AM 5:27 PM
New Moon, 3% visible
METAR KSEE 092315Z AUTO 00000KT 9SM CLR 32/M03 A3006 RMK AO2

10-Day Weather Forecast

Almanac

Astronomy

Feb. 09, 2016 Rise Set
Actual Time
Civil Twilight
Nautical Twilight
Astronomical Twilight
Moon
Length of Visible Light
Length of Day
Tomorrow will be .
, % of the Moon is Illuminated

Today's Extremes

State Highs State Lows

Community

WunderPhotos

Upload Photos

1,891,744 photos uploaded!

WunderBlog® & News

Nearby

Air Quality

  Air Quality AQ Index Pollutant
Not available.

Snow Depth

Station Depth Elevation

Earthquake Activity

City Distance Mag. Time & Date
Minimum magnitude displayed is 2.5.

Coastal Water Temperatures

Place Temperature

Stations

Nearby Weather Stations

Station Location Temp. Windchill Dew Point Humidity Wind Precip. Elev Updated Type
                   

Watches & Warnings

There are currently no watches in effect.